TimeMST,TemperatureF,Dew PointF,Humidity,Sea Level PressureIn,VisibilityMPH,Wind Direction,Wind SpeedMPH,Gust SpeedMPH,PrecipitationIn,Events,Conditions,WindDirDegrees,DateUTC
12:55 AM,21.0,16.7,83,30.29,10.0,ESE,3.5,-,N/A,,Clear,120,2013-02-28 07:55:00
1:55 AM,20.8,17.1,85,30.28,10.0,East,4.6,-,N/A,,Clear,100,2013-02-28 08:55:00
2:55 AM,19.0,16.7,91,30.27,10.0,Calm,Calm,-,N/A,,Clear,0,2013-02-28 09:55:00
3:55 AM,19.2,16.7,90,30.28,10.0,ESE,3.5,-,N/A,,Clear,120,2013-02-28 10:55:00
4:55 AM,18.5,16.5,92,30.29,10.0,Calm,Calm,-,N/A,,Partly Cloudy,0,2013-02-28 11:55:00
5:55 AM,15.1,12.4,89,30.31,10.0,Calm,Calm,-,N/A,,Partly Cloudy,0,2013-02-28 12:55:00
6:55 AM,16.9,14.5,91,30.32,10.0,WSW,3.5,-,N/A,,Partly Cloudy,240,2013-02-28 13:55:00
7:55 AM,21.2,19.2,92,30.32,10.0,Calm,Calm,-,N/A,,Scattered Clouds,0,2013-02-28 14:55:00
8:55 AM,25.2,21.7,87,30.32,10.0,South,5.8,-,N/A,,Partly Cloudy,180,2013-02-28 15:55:00
9:55 AM,30.6,21.9,70,30.31,10.0,SSE,5.8,-,N/A,,Partly Cloudy,150,2013-02-28 16:55:00
10:55 AM,33.8,20.8,59,30.29,10.0,Calm,Calm,-,N/A,,Partly Cloudy,0,2013-02-28 17:55:00
11:55 AM,38.8,20.8,48,30.26,10.0,Variable,3.5,-,N/A,,Partly Cloudy,0,2013-02-28 18:55:00
12:55 PM,41.5,21.7,45,30.23,10.0,NNE,4.6,-,N/A,,Scattered Clouds,20,2013-02-28 19:55:00
1:55 PM,41.5,20.8,44,30.23,10.0,North,8.1,-,N/A,,Mostly Cloudy,360,2013-02-28 20:55:00
2:17 PM,41.0,23.0,49,30.24,2.0,North,20.7,25.3,N/A,,Unknown,360,2013-02-28 21:17:00
2:22 PM,37.4,28.4,70,30.24,2.5,North,8.1,25.3,N/A,Snow,Light Snow,10,2013-02-28 21:22:00
2:27 PM,35.6,26.6,70,30.25,3.0,NNW,6.9,-,N/A,Snow,Light Snow,330,2013-02-28 21:27:00
2:37 PM,35.6,28.4,75,30.25,10.0,West,3.5,-,N/A,,Overcast,280,2013-02-28 21:37:00
2:55 PM,37.9,27.5,66,30.24,10.0,Calm,Calm,-,0.00,,Mostly Cloudy,0,2013-02-28 21:55:00
3:55 PM,38.1,24.3,57,30.24,10.0,North,11.5,-,0.00,,Mostly Cloudy,10,2013-02-28 22:55:00
4:55 PM,38.7,23.5,55,30.24,10.0,ENE,5.8,-,N/A,,Mostly Cloudy,60,2013-02-28 23:55:00
5:55 PM,36.1,25.7,66,30.28,10.0,WNW,4.6,-,N/A,,Mostly Cloudy,300,2013-03-01 00:55:00
6:12 PM,37.4,23.0,56,30.28,10.0,NNW,15.0,-,N/A,Snow,Light Snow,330,2013-03-01 01:12:00
6:20 PM,37.4,23.0,56,30.29,10.0,North,12.7,-,N/A,Snow,Light Snow,10,2013-03-01 01:20:00
6:23 PM,37.4,23.0,56,30.29,10.0,NNE,10.4,-,N/A,,Overcast,20,2013-03-01 01:23:00
6:55 PM,35.4,26.1,69,30.29,10.0,North,8.1,-,0.00,,Overcast,360,2013-03-01 01:55:00
7:55 PM,35.6,23.2,61,30.28,10.0,NW,10.4,-,N/A,,Overcast,320,2013-03-01 02:55:00
8:55 PM,34.7,24.6,67,30.28,10.0,WNW,10.4,-,N/A,,Overcast,300,2013-03-01 03:55:00
9:55 PM,31.5,23.4,72,30.28,10.0,WNW,5.8,-,N/A,,Overcast,290,2013-03-01 04:55:00
10:55 PM,29.7,23.0,76,30.29,10.0,NW,9.2,-,N/A,,Partly Cloudy,310,2013-03-01 05:55:00
11:55 PM,26.4,20.7,79,30.27,10.0,WNW,6.9,-,N/A,,Mostly Cloudy,300,2013-03-01 06:55:00